Time;durP1;ratioP1;P1;durP2;ratioP2;P2;SDS_P1;SDS_P2;PMS_P1;PMS_P2;Temp;Humidity;BMP_temperature;BMP_pressure;BME280_temperature;BME280_humidity;BME280_pressure;Samples;Min_cycle;Max_cycle;Signal;HPM_P1;HPM_P2
2022/01/30 00:09:17;;;;;;;9.87;2.20;;;8.60;99.90;;;;;;20927793;28;20273;-63
2022/01/30 00:19:28;;;;;;;6.43;2.30;;;8.60;99.90;;;;;;20923742;28;20234;-67
2022/01/30 00:29:30;;;;;;;7.27;2.57;;;8.70;99.80;;;;;;20934034;28;20699;-64
2022/01/30 00:39:32;;;;;;;7.63;2.40;;;8.60;98.70;;;;;;20929491;28;20204;-64
2022/01/30 00:49:33;;;;;;;5.90;2.40;;;8.60;98.60;;;;;;20921198;28;20246;-74
2022/01/30 00:59:35;;;;;;;11.30;2.90;;;8.60;98.00;;;;;;20920122;28;20674;-76
2022/01/30 01:09:38;;;;;;;8.50;3.10;;;8.70;97.20;;;;;;20951175;28;20592;-74
2022/01/30 01:30:00;;;;;;;12.00;3.07;;;8.70;97.20;;;;;;20917492;28;20710;-63
2022/01/30 01:40:04;;;;;;;10.33;3.20;;;8.70;97.20;;;;;;20916200;28;20203;-70
2022/01/30 01:50:06;;;;;;;12.87;3.30;;;8.80;97.10;;;;;;20913832;28;20289;-66
2022/01/30 02:00:08;;;;;;;14.97;3.20;;;8.80;97.10;;;;;;20915559;28;20222;-64
2022/01/30 02:10:18;;;;;;;15.50;3.40;;;8.70;96.60;;;;;;20915249;28;20250;-63
2022/01/30 02:30:47;;;;;;;15.80;4.23;;;8.50;96.20;;;;;;20913321;28;20234;-63
2022/01/30 02:40:51;;;;;;;10.33;3.20;;;8.40;96.10;;;;;;20914563;28;20219;-64
2022/01/30 02:51:06;;;;;;;13.50;3.37;;;8.30;94.90;;;;;;20912028;28;20239;-63
2022/01/30 03:01:08;;;;;;;18.23;3.70;;;8.30;94.80;;;;;;20912181;28;20256;-63
2022/01/30 03:11:10;;;;;;;14.83;3.50;;;8.40;94.70;;;;;;20911556;28;20751;-63
2022/01/30 03:21:12;;;;;;;10.57;3.03;;;8.40;93.60;;;;;;20911067;28;20284;-64
2022/01/30 03:37:00;;;;;;;12.13;2.80;;;8.30;92.10;;;;;;20984602;28;20916;-63
2022/01/30 03:47:02;;;;;;;9.53;2.73;;;8.20;90.70;;;;;;20920183;28;20233;-65
2022/01/30 03:57:05;;;;;;;12.43;2.80;;;8.20;90.40;;;;;;20900023;28;20214;-63
2022/01/30 04:07:07;;;;;;;7.73;2.53;;;8.00;90.10;;;;;;20899297;28;20216;-63
2022/01/30 04:17:09;;;;;;;8.60;2.50;;;7.80;88.30;;;;;;20899107;28;20211;-66
2022/01/30 04:27:11;;;;;;;7.53;2.63;;;7.80;87.70;;;;;;20897594;28;20265;-63
2022/01/30 04:37:22;;;;;;;9.13;2.60;;;7.70;86.50;;;;;;20897220;28;20231;-65
2022/01/30 05:02:56;;;;;;;13.63;3.30;;;7.70;85.10;;;;;;21322414;27;20219;-64
2022/01/30 05:13:01;;;;;;;11.27;2.67;;;7.50;83.20;;;;;;21321455;27;20198;-62
2022/01/30 05:23:03;;;;;;;11.73;2.87;;;7.40;83.30;;;;;;21320599;27;20221;-63
2022/01/30 05:33:05;;;;;;;10.07;2.67;;;7.40;84.20;;;;;;21319796;27;20202;-66
2022/01/30 05:43:07;;;;;;;10.70;2.67;;;7.40;83.20;;;;;;21294652;27;20284;-66
2022/01/30 05:53:09;;;;;;;17.57;3.63;;;7.20;81.40;;;;;;21230134;28;20212;-65
2022/01/30 06:03:10;;;;;;;15.20;3.23;;;7.20;81.70;;;;;;21178183;28;20261;-63
2022/01/30 06:13:12;;;;;;;13.47;3.10;;;7.20;81.00;;;;;;21181340;28;20283;-63
2022/01/30 06:23:13;;;;;;;12.63;2.90;;;7.20;81.50;;;;;;21182624;28;20228;-67
2022/01/30 06:33:15;;;;;;;12.47;2.70;;;7.10;81.30;;;;;;21172609;28;20208;-64
2022/01/30 06:43:17;;;;;;;10.63;2.73;;;7.00;80.90;;;;;;21171452;28;20232;-68
2022/01/30 06:53:19;;;;;;;13.00;2.67;;;7.00;80.30;;;;;;21170887;28;20207;-63
2022/01/30 07:03:20;;;;;;;15.97;3.00;;;7.00;80.80;;;;;;21170278;28;20300;-69
2022/01/30 07:13:22;;;;;;;12.97;2.97;;;7.00;81.50;;;;;;21168270;28;20294;-68
2022/01/30 07:23:24;;;;;;;9.67;2.63;;;7.00;81.50;;;;;;21167370;28;20228;-67
2022/01/30 07:33:32;;;;;;;13.37;3.20;;;7.10;82.20;;;;;;21166031;28;20256;-66
2022/01/30 07:43:34;;;;;;;11.10;3.43;;;7.10;81.50;;;;;;21163173;27;20285;-65
2022/01/30 07:53:36;;;;;;;12.00;2.90;;;7.10;81.60;;;;;;21144760;28;20203;-69
2022/01/30 08:03:38;;;;;;;10.47;3.03;;;7.20;82.80;;;;;;21165521;28;20568;-64
2022/01/30 08:13:40;;;;;;;10.57;2.87;;;7.30;81.60;;;;;;21164606;28;20294;-63
2022/01/30 08:23:41;;;;;;;13.40;2.70;;;7.20;81.70;;;;;;21174086;27;20235;-65
2022/01/30 08:33:43;;;;;;;10.67;2.60;;;7.20;82.60;;;;;;21224738;27;20669;-65
2022/01/30 08:43:45;;;;;;;14.73;5.27;;;7.20;82.20;;;;;;21204563;27;20261;-64
2022/01/30 08:53:47;;;;;;;12.93;2.83;;;7.30;81.60;;;;;;21162794;28;20203;-64
2022/01/30 09:03:50;;;;;;;19.53;2.80;;;7.60;81.60;;;;;;21161637;28;20235;-64
2022/01/30 09:13:52;;;;;;;11.90;2.87;;;7.70;81.20;;;;;;21160631;28;20212;-62
2022/01/30 09:23:54;;;;;;;11.33;2.30;;;7.60;81.70;;;;;;21216514;28;20236;-65
2022/01/30 09:33:55;;;;;;;10.93;2.20;;;7.70;82.30;;;;;;21253186;27;20250;-66
2022/01/30 09:44:00;;;;;;;12.77;2.30;;;7.70;81.50;;;;;;21236167;27;20244;-65
2022/01/30 09:54:02;;;;;;;9.03;2.70;;;7.60;79.60;;;;;;21173424;28;20200;-64
2022/01/30 10:06:55;;;;;;;11.93;3.07;;;7.70;79.00;;;;;;20983938;28;20571;-64
2022/01/30 10:16:57;;;;;;;11.83;2.77;;;7.60;78.60;;;;;;20982251;28;20230;-63
2022/01/30 10:27:02;;;;;;;11.73;2.87;;;7.70;78.00;;;;;;20982410;28;20205;-62
2022/01/30 10:37:14;;;;;;;14.20;2.77;;;7.60;78.10;;;;;;20981519;28;20613;-63
2022/01/30 10:47:21;;;;;;;13.87;3.03;;;7.60;78.30;;;;;;20980699;28;20245;-66
2022/01/30 10:57:22;;;;;;;9.43;2.67;;;7.70;79.00;;;;;;20979741;28;20234;-62
2022/01/30 11:07:28;;;;;;;13.67;2.77;;;7.80;78.80;;;;;;20978744;28;20209;-64
2022/01/30 11:17:31;;;;;;;10.50;2.80;;;7.70;76.70;;;;;;20925483;28;20246;-66
2022/01/30 11:27:33;;;;;;;11.20;3.00;;;7.70;77.10;;;;;;20922649;28;20211;-64
2022/01/30 11:37:37;;;;;;;14.30;3.30;;;7.70;73.50;;;;;;20922176;28;20281;-63
2022/01/30 11:48:14;;;;;;;10.97;2.97;;;7.60;72.50;;;;;;20865497;28;20573;-62
2022/01/30 11:58:39;;;;;;;12.30;3.20;;;7.60;73.60;;;;;;20839991;28;20250;-63
2022/01/30 12:08:59;;;;;;;16.90;3.50;;;7.80;74.40;;;;;;20842080;28;20589;-65
2022/01/30 12:23:54;;;;;;;13.87;3.23;;;7.80;73.60;;;;;;21065523;28;20571;-63
2022/01/30 12:34:09;;;;;;;12.83;3.20;;;7.70;73.60;;;;;;21063428;28;20664;-62
2022/01/30 12:44:13;;;;;;;15.23;3.43;;;7.70;74.20;;;;;;21064532;28;20213;-65
2022/01/30 12:54:22;;;;;;;18.80;3.10;;;7.70;72.40;;;;;;21064506;28;20253;-65
2022/01/30 13:04:26;;;;;;;14.80;2.90;;;7.70;72.30;;;;;;21065668;28;20210;-66
2022/01/30 13:14:33;;;;;;;11.17;3.20;;;7.70;72.30;;;;;;21063930;28;20237;-63
2022/01/30 13:24:36;;;;;;;21.07;8.23;;;7.90;71.00;;;;;;21062932;28;20213;-65
2022/01/30 13:34:42;;;;;;;15.07;3.73;;;8.10;71.00;;;;;;21011547;28;20239;-65
2022/01/30 13:44:51;;;;;;;14.20;3.40;;;8.10;71.80;;;;;;20982342;28;20233;-64
2022/01/30 13:55:05;;;;;;;15.27;3.27;;;7.90;70.80;;;;;;20958427;28;20235;-61
2022/01/30 14:05:34;;;;;;;12.57;3.60;;;8.00;70.80;;;;;;20922161;28;20208;-64
2022/01/30 14:15:37;;;;;;;19.20;3.33;;;8.10;68.40;;;;;;21003388;28;20250;-67
2022/01/30 14:25:40;;;;;;;14.70;3.40;;;8.10;67.50;;;;;;21002296;28;20534;-64
2022/01/30 14:35:42;;;;;;;18.43;3.70;;;8.10;68.20;;;;;;21001575;28;20693;-62
2022/01/30 14:45:45;;;;;;;12.77;3.20;;;8.10;69.00;;;;;;20965417;28;20207;-64
2022/01/30 14:55:47;;;;;;;12.23;3.43;;;8.00;69.40;;;;;;20917225;28;20230;-64
2022/01/30 15:05:49;;;;;;;17.33;3.73;;;8.00;70.50;;;;;;20916399;28;20282;-61
2022/01/30 15:15:52;;;;;;;15.80;3.73;;;8.00;70.80;;;;;;20915619;28;20330;-61
2022/01/30 15:25:53;;;;;;;17.53;3.30;;;8.00;71.40;;;;;;20915008;28;20246;-61
2022/01/30 15:35:56;;;;;;;18.40;4.00;;;7.80;71.50;;;;;;20914607;28;20701;-63
2022/01/30 15:56:18;;;;;;;15.87;4.40;;;7.80;71.60;;;;;;20954339;28;20228;-61
2022/01/30 16:06:20;;;;;;;16.27;4.60;;;7.60;70.60;;;;;;20958727;28;20207;-63
2022/01/30 16:16:21;;;;;;;14.60;3.70;;;7.50;71.00;;;;;;20911618;28;20300;-65
2022/01/30 16:26:23;;;;;;;17.53;4.43;;;7.50;71.10;;;;;;20973044;28;20294;-63
2022/01/30 16:36:28;;;;;;;17.90;4.03;;;7.30;69.90;;;;;;20993929;28;20235;-63
2022/01/30 16:56:33;;;;;;;18.13;4.63;;;7.40;69.90;;;;;;20909515;28;20233;-65
2022/01/30 17:06:35;;;;;;;21.47;4.40;;;7.40;70.50;;;;;;20918945;28;20211;-67
2022/01/30 17:16:37;;;;;;;13.27;3.83;;;7.50;69.80;;;;;;20925518;28;20303;-65
2022/01/30 17:27:06;;;;;;;17.13;4.40;;;7.50;70.00;;;;;;20984685;28;20599;-67
2022/01/30 17:37:09;;;;;;;19.50;4.83;;;7.50;70.50;;;;;;20983192;28;20218;-67
2022/01/30 17:47:11;;;;;;;19.87;4.17;;;7.50;70.60;;;;;;20983300;28;20207;-68
2022/01/30 17:57:12;;;;;;;12.97;3.53;;;7.50;70.60;;;;;;20984474;28;20215;-71
2022/01/30 18:07:17;;;;;;;18.77;4.47;;;7.40;69.80;;;;;;20994912;28;20668;-65
2022/01/30 18:17:18;;;;;;;17.07;4.10;;;7.40;70.20;;;;;;20988595;28;20205;-65
2022/01/30 18:35:25;;;;;;;17.70;3.90;;;7.20;70.10;;;;;;21068562;28;20563;-66
2022/01/30 18:45:27;;;;;;;17.00;3.90;;;7.10;70.20;;;;;;21067494;28;20548;-65
2022/01/30 18:55:29;;;;;;;18.67;4.73;;;7.00;69.70;;;;;;21066252;28;20212;-70
2022/01/30 19:05:31;;;;;;;14.10;4.23;;;7.00;69.80;;;;;;21126447;28;20220;-65
2022/01/30 19:15:33;;;;;;;20.67;4.63;;;6.90;69.60;;;;;;21122122;28;20208;-67
2022/01/30 19:25:36;;;;;;;24.27;5.03;;;6.90;69.50;;;;;;21063898;28;20671;-63
2022/01/30 19:35:38;;;;;;;19.50;4.80;;;6.90;69.50;;;;;;21055734;28;20216;-63
2022/01/30 19:45:48;;;;;;;17.87;4.73;;;6.90;69.60;;;;;;21012568;28;20204;-63
2022/01/30 19:55:51;;;;;;;20.53;4.80;;;6.90;69.60;;;;;;21004134;28;20217;-64
2022/01/30 20:05:55;;;;;;;24.57;5.53;;;6.90;69.60;;;;;;20920250;28;20693;-63
2022/01/30 20:15:57;;;;;;;21.80;4.23;;;6.90;69.70;;;;;;20918287;28;20672;-61
2022/01/30 20:25:59;;;;;;;23.07;5.37;;;6.90;69.50;;;;;;20964024;28;20270;-63
2022/01/30 20:36:02;;;;;;;27.07;6.47;;;6.80;69.70;;;;;;20999256;28;20212;-63
2022/01/30 20:46:04;;;;;;;22.63;5.20;;;6.90;70.00;;;;;;20998978;28;20232;-64
2022/01/30 20:56:06;;;;;;;23.00;5.77;;;6.70;71.10;;;;;;20997801;28;20694;-63
2022/01/30 21:06:08;;;;;;;26.87;7.00;;;6.70;72.10;;;;;;20998168;28;20229;-63
2022/01/30 21:16:09;;;;;;;27.33;5.93;;;6.30;71.70;;;;;;20997447;28;20672;-63
2022/01/30 21:26:13;;;;;;;23.50;6.23;;;6.20;71.90;;;;;;20996143;28;20983;-63
2022/01/30 21:36:16;;;;;;;24.27;6.50;;;6.10;72.60;;;;;;20987924;28;20270;-65
2022/01/30 21:46:17;;;;;;;22.87;5.90;;;6.00;73.40;;;;;;20994668;28;20227;-64
2022/01/30 21:56:19;;;;;;;18.93;5.70;;;6.00;73.60;;;;;;20993970;28;20218;-64
2022/01/30 22:06:21;;;;;;;20.63;5.93;;;5.80;73.70;;;;;;20993677;28;20356;-63
2022/01/30 22:16:23;;;;;;;15.70;4.70;;;5.70;73.70;;;;;;20992066;28;20605;-62
2022/01/30 22:27:27;;;;;;;16.90;4.77;;;5.70;73.70;;;;;;21065668;28;20564;-66
2022/01/30 22:37:29;;;;;;;20.87;4.57;;;5.80;73.70;;;;;;21064722;28;20216;-64
2022/01/30 22:47:32;;;;;;;24.67;4.60;;;5.90;73.60;;;;;;21064539;28;20265;-63
2022/01/30 22:57:34;;;;;;;18.33;4.40;;;5.90;74.20;;;;;;21064141;28;20206;-64
2022/01/30 23:17:27;;;;;;;17.93;4.63;;;5.70;74.30;;;;;;20969683;28;20931;-64
2022/01/30 23:27:36;;;;;;;26.43;5.00;;;5.70;74.30;;;;;;20975385;28;20655;-65
2022/01/30 23:37:38;;;;;;;16.80;3.57;;;5.70;74.50;;;;;;20979116;28;20268;-64
2022/01/30 23:47:41;;;;;;;17.20;4.47;;;5.70;74.50;;;;;;20979488;28;20733;-66
2022/01/30 23:57:43;;;;;;;21.73;5.10;;;5.60;74.70;;;;;;20978887;28;20208;-62
